createdAt,value
2023-04-12T00:02:06.656Z,1.92
2023-04-12T00:04:35.972Z,2.65
2023-04-12T00:07:03.385Z,1.55
2023-04-12T00:09:30.736Z,2.05
2023-04-12T00:11:59.269Z,2.23
2023-04-12T00:14:26.575Z,2.17
2023-04-12T00:16:54.011Z,2.05
2023-04-12T00:19:21.551Z,1.73
2023-04-12T00:21:48.721Z,2.25
2023-04-12T00:24:15.975Z,2.20
2023-04-12T00:26:43.148Z,2.25
2023-04-12T00:29:11.064Z,2.22
2023-04-12T00:31:38.308Z,2.38
2023-04-12T00:34:05.764Z,2.42
2023-04-12T00:36:33.071Z,2.00
2023-04-12T00:39:00.306Z,2.20
2023-04-12T00:41:28.124Z,2.35
2023-04-12T00:43:55.803Z,2.42
2023-04-12T00:46:23.598Z,2.50
2023-04-12T00:48:52.147Z,2.13
2023-04-12T00:51:22.302Z,2.30
2023-04-12T00:53:49.633Z,2.05
2023-04-12T00:56:17.114Z,2.03
2023-04-12T00:58:44.311Z,1.98
2023-04-12T01:01:11.618Z,1.90
2023-04-12T01:03:43.097Z,2.15
2023-04-12T01:06:35.324Z,1.60
2023-04-12T01:09:16.226Z,1.63
2023-04-12T01:11:58.674Z,2.03
2023-04-12T01:14:37.181Z,1.57
2023-04-12T01:17:08.081Z,1.42
2023-04-12T01:20:09.801Z,1.45
2023-04-12T01:23:14.725Z,1.40
2023-04-12T01:25:48.053Z,1.63
2023-04-12T01:28:18.475Z,1.30
2023-04-12T01:30:51.343Z,1.73
2023-04-12T01:33:22.082Z,1.75
2023-04-12T01:35:51.371Z,1.42
2023-04-12T01:38:19.209Z,1.20
2023-04-12T01:40:48.207Z,1.30
2023-04-12T01:43:16.135Z,1.67
2023-04-12T01:45:43.416Z,1.35
2023-04-12T01:48:12.187Z,1.55
2023-04-12T01:51:15.478Z,1.30
2023-04-12T01:53:50.781Z,1.10
2023-04-12T01:56:20.176Z,1.25
2023-04-12T01:58:50.745Z,1.00
2023-04-12T02:01:19.121Z,1.33
2023-04-12T02:03:49.689Z,1.10
2023-04-12T02:06:20.795Z,1.20
2023-04-12T02:08:48.836Z,1.30
2023-04-12T02:11:16.072Z,1.38
2023-04-12T02:13:44.855Z,1.17
2023-04-12T02:16:13.946Z,1.70
2023-04-12T02:18:42.248Z,1.40
2023-04-12T02:21:11.475Z,1.38
2023-04-12T02:23:38.724Z,1.30
2023-04-12T02:26:06.970Z,1.70
2023-04-12T02:28:34.651Z,1.60
2023-04-12T02:31:02.050Z,1.53
2023-04-12T02:33:31.531Z,1.63
2023-04-12T02:36:04.191Z,1.48
2023-04-12T02:38:31.548Z,1.50
2023-04-12T02:41:02.539Z,2.00
2023-04-12T02:43:33.080Z,1.80
2023-04-12T02:46:04.339Z,1.40
2023-04-12T02:48:39.007Z,1.60
2023-04-12T02:51:07.033Z,1.30
2023-04-12T02:53:35.426Z,1.65
2023-04-12T02:56:29.931Z,1.60
2023-04-12T02:59:06.784Z,1.42
2023-04-12T03:01:56.694Z,1.63
2023-04-12T03:04:32.916Z,2.08
2023-04-12T03:07:02.318Z,1.70
2023-04-12T03:09:38.527Z,1.47
2023-04-12T03:12:06.438Z,1.58
2023-04-12T03:14:38.484Z,1.20
2023-04-12T03:17:07.947Z,1.50
2023-04-12T03:19:37.222Z,1.75
2023-04-12T03:22:06.101Z,1.33
2023-04-12T03:24:37.146Z,1.50
2023-04-12T03:27:06.809Z,1.20
2023-04-12T03:29:35.708Z,1.95
2023-04-12T03:32:04.002Z,2.00
2023-04-12T03:34:32.501Z,1.70
2023-04-12T03:37:05.501Z,1.60
2023-04-12T03:39:50.753Z,1.50
2023-04-12T03:42:32.301Z,1.50
2023-04-12T03:45:03.639Z,1.55
2023-04-12T03:47:31.630Z,1.77
2023-04-12T03:50:11.474Z,2.45
2023-04-12T03:52:42.107Z,1.83
2023-04-12T03:55:09.662Z,1.80
2023-04-12T03:57:37.961Z,1.67
2023-04-12T04:00:08.587Z,1.67
2023-04-12T04:03:05.339Z,1.20
2023-04-12T04:05:40.352Z,1.50
2023-04-12T04:08:08.765Z,1.52
2023-04-12T04:10:49.277Z,2.40
2023-04-12T04:13:17.013Z,1.70
2023-04-12T04:15:44.403Z,1.40
2023-04-12T04:18:11.948Z,1.70
2023-04-12T04:20:39.210Z,1.58
2023-04-12T04:23:06.961Z,1.60
2023-04-12T04:25:35.003Z,1.50
2023-04-12T04:28:07.770Z,1.67
2023-04-12T04:30:38.797Z,1.60
2023-04-12T04:33:08.778Z,1.77
2023-04-12T04:35:42.468Z,1.15
2023-04-12T04:38:25.839Z,1.80
2023-04-12T04:40:58.646Z,2.05
2023-04-12T04:43:39.831Z,1.55
2023-04-12T04:46:07.309Z,1.90
2023-04-12T04:48:34.506Z,1.92
2023-04-12T04:51:02.502Z,1.73
2023-04-12T04:53:29.855Z,1.80
2023-04-12T04:55:59.385Z,1.27
2023-04-12T04:58:31.178Z,2.20
2023-04-12T05:00:59.974Z,2.55
2023-04-12T05:03:30.774Z,2.07
2023-04-12T05:05:59.419Z,1.58
2023-04-12T05:08:28.496Z,2.08
2023-04-12T05:10:56.794Z,1.85
2023-04-12T05:13:27.970Z,1.80
2023-04-12T05:15:55.240Z,1.77
2023-04-12T05:18:22.683Z,2.58
2023-04-12T05:20:50.388Z,2.20
2023-04-12T05:23:17.602Z,2.58
2023-04-12T05:25:47.023Z,2.78
2023-04-12T05:28:17.163Z,1.90
2023-04-12T05:30:45.357Z,1.80
2023-04-12T05:33:34.390Z,2.30
2023-04-12T05:36:02.788Z,1.90
2023-04-12T05:38:31.699Z,3.08
2023-04-12T05:41:06.836Z,2.70
2023-04-12T05:43:34.652Z,3.08
2023-04-12T05:46:02.806Z,3.30
2023-04-12T05:48:31.057Z,3.50
2023-04-12T05:51:02.507Z,3.63
2023-04-12T05:53:32.747Z,3.30
2023-04-12T05:56:03.071Z,3.15
2023-04-12T05:58:30.695Z,4.63
2023-04-12T06:00:59.233Z,4.07
2023-04-12T06:03:26.843Z,4.85
2023-04-12T06:05:58.987Z,3.57
2023-04-12T06:08:29.250Z,4.90
2023-04-12T06:10:56.518Z,5.35
2023-04-12T06:13:23.986Z,3.75
2023-04-12T06:15:51.390Z,4.63
2023-04-12T06:18:18.828Z,4.47
2023-04-12T06:20:46.522Z,2.85
2023-04-12T06:23:13.882Z,5.82
2023-04-12T06:25:41.231Z,5.93
2023-04-12T06:28:09.369Z,5.78
2023-04-12T06:30:43.240Z,6.03
2023-04-12T06:33:11.751Z,4.80
2023-04-12T06:35:39.567Z,6.43
2023-04-12T06:38:06.803Z,6.20
2023-04-12T06:40:34.106Z,6.35
2023-04-12T06:43:01.373Z,6.17
2023-04-12T06:45:28.593Z,5.95
2023-04-12T06:47:57.063Z,7.65
2023-04-12T06:50:25.934Z,6.30
2023-04-12T06:52:53.194Z,6.95
2023-04-12T06:55:20.900Z,6.83
2023-04-12T06:57:49.052Z,6.43
2023-04-12T07:00:16.538Z,6.53
2023-04-12T07:02:43.945Z,4.88
2023-04-12T07:05:11.301Z,6.85
2023-04-12T07:07:38.486Z,6.20
2023-04-12T07:10:06.507Z,4.75
2023-04-12T07:12:34.022Z,4.68
2023-04-12T07:15:01.186Z,2.95
2023-04-12T07:17:28.413Z,3.30
2023-04-12T07:19:56.130Z,3.17
2023-04-12T07:22:23.300Z,3.40
2023-04-12T07:24:50.874Z,3.40
2023-04-12T07:27:18.066Z,3.10
2023-04-12T07:29:45.458Z,3.03
2023-04-12T07:32:12.742Z,3.83
2023-04-12T07:34:40.335Z,3.47
2023-04-12T07:37:07.646Z,3.08
2023-04-12T07:39:34.918Z,3.70
2023-04-12T07:42:02.198Z,2.28
2023-04-12T07:44:31.480Z,3.13
2023-04-12T07:46:58.695Z,2.63
2023-04-12T07:49:26.973Z,3.47
2023-04-12T07:51:54.127Z,2.85
2023-04-12T07:54:22.339Z,2.60
2023-04-12T07:57:05.976Z,3.07
2023-04-12T07:59:33.624Z,2.70
2023-04-12T08:02:01.996Z,3.33
2023-04-12T08:04:29.433Z,3.08
2023-04-12T08:06:56.685Z,3.22
2023-04-12T08:09:24.716Z,2.53
2023-04-12T08:11:52.246Z,3.05
2023-04-12T08:14:20.076Z,2.20
2023-04-12T08:16:47.368Z,2.80
2023-04-12T08:19:14.634Z,3.22
2023-04-12T08:21:41.931Z,3.27
2023-04-12T08:24:09.205Z,3.13
2023-04-12T08:26:36.409Z,3.30
2023-04-12T08:29:03.602Z,2.40
2023-04-12T08:31:30.874Z,3.17
2023-04-12T08:33:59.810Z,2.53
2023-04-12T08:36:27.257Z,3.70
2023-04-12T08:38:58.858Z,3.10
2023-04-12T08:41:26.435Z,2.40
2023-04-12T08:43:55.560Z,3.50
2023-04-12T08:46:22.916Z,2.53
2023-04-12T08:48:54.270Z,2.83
2023-04-12T08:51:22.633Z,2.85
2023-04-12T08:53:50.918Z,2.38
2023-04-12T08:56:19.175Z,3.00
2023-04-12T08:58:51.100Z,3.40
2023-04-12T09:01:21.528Z,2.58
2023-04-12T09:03:49.128Z,2.97
2023-04-12T09:06:16.479Z,2.53
2023-04-12T09:08:52.372Z,2.35
2023-04-12T09:11:27.403Z,2.13
2023-04-12T09:13:56.022Z,2.50
2023-04-12T09:16:41.315Z,2.60
2023-04-12T09:19:09.374Z,2.50
2023-04-12T09:21:37.200Z,3.38
2023-04-12T09:24:14.558Z,2.60
2023-04-12T09:26:42.443Z,2.80
2023-04-12T09:29:27.000Z,2.15
2023-04-12T09:32:04.863Z,2.50
2023-04-12T09:34:33.340Z,2.30
2023-04-12T09:37:14.625Z,2.50
2023-04-12T09:39:43.258Z,2.85
2023-04-12T09:42:29.265Z,2.30
2023-04-12T09:45:02.816Z,2.47
2023-04-12T09:47:41.180Z,2.35
2023-04-12T09:50:10.013Z,2.17
2023-04-12T09:52:38.753Z,2.13
2023-04-12T09:55:10.818Z,2.28
2023-04-12T09:57:43.020Z,2.15
2023-04-12T10:00:22.441Z,2.00
2023-04-12T10:02:52.623Z,1.87
2023-04-12T10:05:23.123Z,2.03
2023-04-12T10:07:51.154Z,1.95
2023-04-12T10:10:19.693Z,2.20
2023-04-12T10:12:48.439Z,2.33
2023-04-12T10:15:21.154Z,2.67
2023-04-12T10:17:57.259Z,2.10
2023-04-12T10:20:28.219Z,1.90
2023-04-12T10:22:59.274Z,2.72
2023-04-12T10:25:29.917Z,2.20
2023-04-12T10:27:57.124Z,2.93
2023-04-12T10:30:31.120Z,2.95
2023-04-12T10:33:10.142Z,2.25
2023-04-12T10:35:49.749Z,2.95
2023-04-12T10:38:17.200Z,3.00
2023-04-12T10:41:07.063Z,2.90
2023-04-12T10:43:34.429Z,2.53
2023-04-12T10:46:06.448Z,2.63
2023-04-12T10:48:36.609Z,2.60
2023-04-12T10:51:28.633Z,2.70
2023-04-12T10:54:07.534Z,2.20
2023-04-12T10:56:37.601Z,2.40
2023-04-12T10:59:06.772Z,2.05
2023-04-12T11:02:02.398Z,2.75
2023-04-12T11:04:30.091Z,2.30
2023-04-12T11:07:11.174Z,2.27
2023-04-12T11:10:12.919Z,2.50
2023-04-12T11:12:41.520Z,2.60
2023-04-12T11:15:12.455Z,2.40
2023-04-12T11:17:57.126Z,2.38
2023-04-12T11:20:27.347Z,2.20
2023-04-12T11:22:55.310Z,2.65
2023-04-12T11:25:25.347Z,2.72
2023-04-12T11:27:54.722Z,3.00
2023-04-12T11:30:25.336Z,3.17
2023-04-12T11:32:52.597Z,3.00
2023-04-12T11:35:24.356Z,3.38
2023-04-12T11:37:51.725Z,3.33
2023-04-12T11:40:22.274Z,2.88
2023-04-12T11:42:49.598Z,3.22
2023-04-12T11:45:20.593Z,2.73
2023-04-12T11:47:48.041Z,2.88
2023-04-12T11:50:28.761Z,2.58
2023-04-12T11:52:56.050Z,2.75
2023-04-12T11:55:23.361Z,3.35
2023-04-12T11:57:55.916Z,2.20
2023-04-12T12:00:25.448Z,2.88
2023-04-12T12:03:06.668Z,2.75
2023-04-12T12:05:40.979Z,3.00
2023-04-12T12:08:09.269Z,2.40
2023-04-12T12:10:44.228Z,2.40
2023-04-12T12:13:14.458Z,2.75
2023-04-12T12:15:45.690Z,2.67
2023-04-12T12:18:12.993Z,2.28
2023-04-12T12:21:01.233Z,2.40
2023-04-12T12:23:32.396Z,1.90
2023-04-12T12:26:16.950Z,2.53
2023-04-12T12:28:53.739Z,1.92
2023-04-12T12:31:23.046Z,2.00
2023-04-12T12:33:58.379Z,2.30
2023-04-12T12:36:36.737Z,2.13
2023-04-12T12:39:10.406Z,1.70
2023-04-12T12:41:39.080Z,1.48
2023-04-12T12:44:07.690Z,2.25
2023-04-12T12:49:06.231Z,1.90
2023-04-12T12:51:33.622Z,1.60
2023-04-12T12:54:01.165Z,2.28
2023-04-12T12:56:28.435Z,1.83
2023-04-12T12:58:55.988Z,1.50
2023-04-12T13:01:23.361Z,1.60
2023-04-12T13:03:50.837Z,1.27
2023-04-12T13:06:18.303Z,1.52
2023-04-12T13:08:46.638Z,1.48
2023-04-12T13:11:14.429Z,1.50
2023-04-12T13:13:43.032Z,1.00
2023-04-12T13:16:10.892Z,1.00
2023-04-12T13:18:38.257Z,1.30
2023-04-12T13:21:06.198Z,1.30
2023-04-12T13:23:33.518Z,1.65
2023-04-12T13:26:00.670Z,1.20
2023-04-12T13:28:27.862Z,1.25
2023-04-12T13:30:55.376Z,1.20
2023-04-12T13:33:22.599Z,1.50
2023-04-12T13:35:49.971Z,1.45
2023-04-12T13:38:17.173Z,1.53
2023-04-12T13:40:44.370Z,1.60
2023-04-12T13:43:11.577Z,2.00
2023-04-12T13:45:39.229Z,1.48
2023-04-12T13:48:06.680Z,1.55
2023-04-12T13:50:33.935Z,1.43
2023-04-12T13:53:01.374Z,1.58
2023-04-12T13:55:28.573Z,1.40
2023-04-12T13:57:55.824Z,1.20
2023-04-12T14:00:23.263Z,1.65
2023-04-12T14:02:50.599Z,1.00
2023-04-12T14:05:17.855Z,1.23
2023-04-12T14:07:45.104Z,1.17
2023-04-12T14:10:12.276Z,1.40
2023-04-12T14:12:40.023Z,1.40
2023-04-12T14:15:08.333Z,1.20
2023-04-12T14:17:35.649Z,1.42
2023-04-12T14:20:05.656Z,1.40
2023-04-12T14:22:32.910Z,1.20
2023-04-12T14:25:00.240Z,1.33
2023-04-12T14:27:27.484Z,1.07
2023-04-12T14:29:54.751Z,1.33
2023-04-12T14:32:22.552Z,1.40
2023-04-12T14:34:49.760Z,1.10
2023-04-12T14:37:17.357Z,1.23
2023-04-12T14:39:44.584Z,1.20
2023-04-12T14:42:11.862Z,1.10
2023-04-12T14:44:39.101Z,1.00
2023-04-12T14:47:06.337Z,0.90
2023-04-12T14:49:33.781Z,1.13
2023-04-12T14:52:01.938Z,1.30
2023-04-12T14:54:29.233Z,1.10
2023-04-12T14:56:56.844Z,1.52
2023-04-12T14:59:24.173Z,1.70
2023-04-12T15:01:52.405Z,1.40
2023-04-12T15:04:20.350Z,1.37
2023-04-12T15:06:47.715Z,1.25
2023-04-12T15:09:17.719Z,1.30
2023-04-12T15:11:49.352Z,1.35
2023-04-12T15:14:18.081Z,1.05
2023-04-12T15:16:46.447Z,1.23
2023-04-12T15:19:19.996Z,1.05
2023-04-12T15:21:50.906Z,1.30
2023-04-12T15:24:22.418Z,1.10
2023-04-12T15:26:51.455Z,1.60
2023-04-12T15:29:19.920Z,1.33
2023-04-12T15:31:47.205Z,1.17
2023-04-12T15:34:14.563Z,1.50
2023-04-12T15:36:43.102Z,1.52
2023-04-12T15:39:12.496Z,1.13
2023-04-12T15:41:40.594Z,1.33
2023-04-12T15:44:09.181Z,1.52
2023-04-12T15:46:36.433Z,1.50
2023-04-12T15:49:03.853Z,1.25
2023-04-12T15:51:32.275Z,2.00
2023-04-12T15:53:59.699Z,1.40
2023-04-12T15:56:27.170Z,1.17
2023-04-12T15:58:57.809Z,1.50
2023-04-12T16:01:25.585Z,1.83
2023-04-12T16:03:53.192Z,1.40
2023-04-12T16:06:21.002Z,1.30
2023-04-12T16:08:49.820Z,1.65
2023-04-12T16:11:17.991Z,2.00
2023-04-12T16:13:47.913Z,1.33
2023-04-12T16:16:17.748Z,1.50
2023-04-12T16:18:46.206Z,1.33
2023-04-12T16:21:19.794Z,1.17
2023-04-12T16:23:48.288Z,1.33
2023-04-12T16:26:21.944Z,2.15
2023-04-12T16:28:53.263Z,1.60
2023-04-12T16:31:21.232Z,1.20
2023-04-12T16:33:49.602Z,1.45
2023-04-12T16:36:16.867Z,1.48
2023-04-12T16:38:47.892Z,1.60
2023-04-12T16:41:17.254Z,1.83
2023-04-12T16:43:45.539Z,1.67
2023-04-12T16:46:13.000Z,1.95
2023-04-12T16:48:41.513Z,1.88
2023-04-12T16:51:08.824Z,1.48
2023-04-12T16:53:36.521Z,1.98
2023-04-12T16:56:04.487Z,2.00
2023-04-12T16:58:33.137Z,1.50
2023-04-12T17:01:00.419Z,1.60
2023-04-12T17:03:27.841Z,1.60
2023-04-12T17:05:55.176Z,1.90
2023-04-12T17:08:22.680Z,1.60
2023-04-12T17:10:50.099Z,1.80
2023-04-12T17:13:19.611Z,1.60
2023-04-12T17:15:48.232Z,1.83
2023-04-12T17:18:15.990Z,1.90
2023-04-12T17:20:44.026Z,1.67
2023-04-12T17:23:11.564Z,1.73
2023-04-12T17:25:39.519Z,1.40
2023-04-12T17:28:08.513Z,1.30
2023-04-12T17:30:36.110Z,1.45
2023-04-12T17:33:03.560Z,1.90
2023-04-12T17:35:31.029Z,1.95
2023-04-12T17:37:58.248Z,1.58
2023-04-12T17:40:27.093Z,2.40
2023-04-12T17:42:54.394Z,1.70
2023-04-12T17:45:23.479Z,1.63
2023-04-12T17:47:50.908Z,1.90
2023-04-12T17:50:18.141Z,2.10
2023-04-12T17:52:45.611Z,1.70
2023-04-12T17:55:12.841Z,1.40
2023-04-12T17:57:40.679Z,1.10
2023-04-12T18:00:11.484Z,1.80
2023-04-12T18:02:43.248Z,1.38
2023-04-12T18:05:11.158Z,1.35
2023-04-12T18:07:39.989Z,1.63
2023-04-12T18:10:12.598Z,1.27
2023-04-12T18:12:40.839Z,1.20
2023-04-12T18:15:08.751Z,1.30
2023-04-12T18:17:36.256Z,1.50
2023-04-12T18:20:08.646Z,1.58
2023-04-12T18:22:36.126Z,1.50
2023-04-12T18:25:03.529Z,1.52
2023-04-12T18:27:31.957Z,1.42
2023-04-12T18:30:01.306Z,1.20
2023-04-12T18:32:28.813Z,1.23
2023-04-12T18:34:56.170Z,1.03
2023-04-12T18:37:23.373Z,0.90
2023-04-12T18:39:53.070Z,1.33
2023-04-12T18:42:20.599Z,1.70
2023-04-12T18:44:47.856Z,1.30
2023-04-12T18:47:15.038Z,1.47
2023-04-12T18:49:42.317Z,1.58
2023-04-12T18:52:09.624Z,1.30
2023-04-12T18:54:36.785Z,1.35
2023-04-12T18:57:04.130Z,1.30
2023-04-12T18:59:31.999Z,1.20
2023-04-12T19:01:59.243Z,1.50
2023-04-12T19:04:26.556Z,0.98
2023-04-12T19:06:55.169Z,1.00
2023-04-12T19:09:22.334Z,1.48
2023-04-12T19:11:49.487Z,2.10
2023-04-12T19:14:17.459Z,2.40
2023-04-12T19:16:44.694Z,1.58
2023-04-12T19:19:12.274Z,2.75
2023-04-12T19:21:39.500Z,1.38
2023-04-12T19:24:07.580Z,1.10
2023-04-12T19:26:38.558Z,0.95
2023-04-12T19:29:05.980Z,1.60
2023-04-12T19:31:35.133Z,1.27
2023-04-12T19:34:02.640Z,2.65
2023-04-12T19:36:29.833Z,1.43
2023-04-12T19:38:57.389Z,1.38
2023-04-12T19:41:24.908Z,1.20
2023-04-12T19:43:52.206Z,1.15
2023-04-12T19:46:19.621Z,1.25
2023-04-12T19:48:47.386Z,1.33
2023-04-12T19:51:15.265Z,1.40
2023-04-12T19:53:42.620Z,1.30
2023-04-12T19:56:09.933Z,1.02
2023-04-12T19:58:37.338Z,2.30
2023-04-12T20:01:04.911Z,1.47
2023-04-12T20:03:32.808Z,1.35
2023-04-12T20:06:03.672Z,1.83
2023-04-12T20:08:31.666Z,1.63
2023-04-12T20:10:59.501Z,2.13
2023-04-12T20:13:27.223Z,1.70
2023-04-12T20:15:54.926Z,1.80
2023-04-12T20:18:22.446Z,1.63
2023-04-12T20:20:50.996Z,1.65
2023-04-12T20:23:18.251Z,2.85
2023-04-12T20:25:48.943Z,2.87
2023-04-12T20:28:16.330Z,2.20
2023-04-12T20:30:46.854Z,2.05
2023-04-12T20:33:14.943Z,2.67
2023-04-12T20:35:44.929Z,1.67
2023-04-12T20:38:13.049Z,2.53
2023-04-12T20:40:40.702Z,2.10
2023-04-12T20:43:08.475Z,1.77
2023-04-12T20:45:38.028Z,2.42
2023-04-12T20:48:05.774Z,1.85
2023-04-12T20:50:32.980Z,1.60
2023-04-12T20:53:00.297Z,1.88
2023-04-12T20:55:34.611Z,2.08
2023-04-12T20:58:03.106Z,1.55
2023-04-12T21:00:31.343Z,2.13
2023-04-12T21:02:58.799Z,1.80
2023-04-12T21:05:27.318Z,1.52
2023-04-12T21:07:54.852Z,1.80
2023-04-12T21:10:22.319Z,2.17
2023-04-12T21:12:50.027Z,1.60
2023-04-12T21:15:21.896Z,1.73
2023-04-12T21:17:50.689Z,1.23
2023-04-12T21:20:18.629Z,1.80
2023-04-12T21:22:47.436Z,1.40
2023-04-12T21:25:16.567Z,1.17
2023-04-12T21:27:45.744Z,1.53
2023-04-12T21:30:13.705Z,1.40
2023-04-12T21:32:41.978Z,1.35
2023-04-12T21:35:09.928Z,1.52
2023-04-12T21:37:40.582Z,1.75
2023-04-12T21:40:12.560Z,1.53
2023-04-12T21:42:40.923Z,1.23
2023-04-12T21:45:09.476Z,1.30
2023-04-12T21:47:40.408Z,1.25
2023-04-12T21:50:11.319Z,1.40
2023-04-12T21:52:40.116Z,1.20
2023-04-12T21:55:07.634Z,1.27
2023-04-12T21:57:35.860Z,1.05
2023-04-12T22:00:05.686Z,0.90
2023-04-12T22:02:39.249Z,1.65
2023-04-12T22:05:07.491Z,0.97
2023-04-12T22:07:35.261Z,1.20
2023-04-12T22:10:02.484Z,1.13
2023-04-12T22:12:29.984Z,1.00
2023-04-12T22:14:57.496Z,1.20
2023-04-12T22:17:24.973Z,1.00
2023-04-12T22:19:56.455Z,1.10
2023-04-12T22:22:25.687Z,1.23
2023-04-12T22:24:53.793Z,1.10
2023-04-12T22:27:21.228Z,1.15
2023-04-12T22:29:49.978Z,1.27
2023-04-12T22:32:17.198Z,1.10
2023-04-12T22:34:44.936Z,1.00
2023-04-12T22:37:12.218Z,1.20
2023-04-12T22:39:39.398Z,1.05
2023-04-12T22:42:06.601Z,1.23
2023-04-12T22:44:38.416Z,1.65
2023-04-12T22:47:08.722Z,1.55
2023-04-12T22:49:45.241Z,1.10
2023-04-12T22:52:13.552Z,1.42
2023-04-12T22:54:40.870Z,0.90
2023-04-12T22:57:08.193Z,1.30
2023-04-12T22:59:35.514Z,1.13
2023-04-12T23:02:02.927Z,1.10
2023-04-12T23:04:30.269Z,1.50
2023-04-12T23:06:57.549Z,1.00
2023-04-12T23:09:25.581Z,0.90
2023-04-12T23:11:52.824Z,1.10
2023-04-12T23:14:22.707Z,1.20
2023-04-12T23:16:51.541Z,0.80
2023-04-12T23:19:18.898Z,1.10
2023-04-12T23:21:46.177Z,1.10
2023-04-12T23:24:15.555Z,1.30
2023-04-12T23:26:45.127Z,0.90
2023-04-12T23:29:12.924Z,1.10
2023-04-12T23:31:43.060Z,0.90
2023-04-12T23:34:10.434Z,1.20
2023-04-12T23:36:37.760Z,1.58
2023-04-12T23:39:07.032Z,1.05
2023-04-12T23:41:34.432Z,1.40
2023-04-12T23:44:01.964Z,1.20
2023-04-12T23:46:29.482Z,0.93
2023-04-12T23:48:57.057Z,1.15
2023-04-12T23:51:24.210Z,1.40
2023-04-12T23:53:51.656Z,1.20
2023-04-12T23:56:18.868Z,1.30
2023-04-12T23:58:47.106Z,1.20
